sensor_id;sensor_type;location;lat;lon;timestamp;temperature;humidity
9949;DHT22;5013;51.840;8.276;2023-03-31T00:02:04;10.40;1.00
9949;DHT22;5013;51.840;8.276;2023-03-31T00:04:39;10.30;99.90
9949;DHT22;5013;51.840;8.276;2023-03-31T00:07:13;10.30;1.00
9949;DHT22;5013;51.840;8.276;2023-03-31T00:09:39;10.30;1.00
9949;DHT22;5013;51.840;8.276;2023-03-31T00:12:06;10.30;1.00
9949;DHT22;5013;51.840;8.276;2023-03-31T00:14:32;10.20;1.00
9949;DHT22;5013;51.840;8.276;2023-03-31T00:16:57;10.10;99.90
9949;DHT22;5013;51.840;8.276;2023-03-31T00:19:23;10.10;99.90
9949;DHT22;5013;51.840;8.276;2023-03-31T00:21:49;10.10;1.00
9949;DHT22;5013;51.840;8.276;2023-03-31T00:24:16;10.10;1.00
9949;DHT22;5013;51.840;8.276;2023-03-31T00:26:42;10.10;1.00
9949;DHT22;5013;51.840;8.276;2023-03-31T00:29:10;10.10;1.00
9949;DHT22;5013;51.840;8.276;2023-03-31T00:31:36;10.10;99.90
9949;DHT22;5013;51.840;8.276;2023-03-31T00:34:03;10.10;99.90
9949;DHT22;5013;51.840;8.276;2023-03-31T00:36:29;10.20;99.90
9949;DHT22;5013;51.840;8.276;2023-03-31T00:38:57;10.30;99.90
9949;DHT22;5013;51.840;8.276;2023-03-31T00:41:24;10.30;99.90
9949;DHT22;5013;51.840;8.276;2023-03-31T00:49:02;10.30;1.00
9949;DHT22;5013;51.840;8.276;2023-03-31T00:51:31;10.30;1.00
9949;DHT22;5013;51.840;8.276;2023-03-31T00:54:04;10.20;1.00
9949;DHT22;5013;51.840;8.276;2023-03-31T00:56:35;10.30;99.90
9949;DHT22;5013;51.840;8.276;2023-03-31T00:59:03;10.30;99.90
9949;DHT22;5013;51.840;8.276;2023-03-31T01:01:32;10.30;99.90
9949;DHT22;5013;51.840;8.276;2023-03-31T01:04:01;10.30;99.90
9949;DHT22;5013;51.840;8.276;2023-03-31T01:13:12;10.10;99.90
9949;DHT22;5013;51.840;8.276;2023-03-31T01:15:39;10.00;99.90
9949;DHT22;5013;51.840;8.276;2023-03-31T01:18:07;9.90;1.00
9949;DHT22;5013;51.840;8.276;2023-03-31T01:34:59;9.80;99.90
9949;DHT22;5013;51.840;8.276;2023-03-31T01:48:32;9.90;99.90
9949;DHT22;5013;51.840;8.276;2023-03-31T01:51:47;10.00;99.90
9949;DHT22;5013;51.840;8.276;2023-03-31T01:56:37;10.00;1.00
9949;DHT22;5013;51.840;8.276;2023-03-31T01:59:09;10.00;99.90
9949;DHT22;5013;51.840;8.276;2023-03-31T02:04:21;10.00;99.90
9949;DHT22;5013;51.840;8.276;2023-03-31T02:06:52;10.10;99.90
9949;DHT22;5013;51.840;8.276;2023-03-31T02:09:23;10.10;99.90
9949;DHT22;5013;51.840;8.276;2023-03-31T02:11:52;10.20;99.90
9949;DHT22;5013;51.840;8.276;2023-03-31T02:14:23;10.20;99.90
9949;DHT22;5013;51.840;8.276;2023-03-31T02:16:54;10.30;99.90
9949;DHT22;5013;51.840;8.276;2023-03-31T02:19:25;10.30;99.90
9949;DHT22;5013;51.840;8.276;2023-03-31T02:21:53;10.40;99.90
9949;DHT22;5013;51.840;8.276;2023-03-31T02:24:22;10.40;99.90
9949;DHT22;5013;51.840;8.276;2023-03-31T02:26:56;10.40;75.40
9949;DHT22;5013;51.840;8.276;2023-03-31T02:29:25;10.40;16.30
9949;DHT22;5013;51.840;8.276;2023-03-31T02:31:53;10.40;1.00
9949;DHT22;5013;51.840;8.276;2023-03-31T02:34:22;10.40;1.00
9949;DHT22;5013;51.840;8.276;2023-03-31T02:36:48;10.50;1.00
9949;DHT22;5013;51.840;8.276;2023-03-31T02:39:26;10.50;1.00
9949;DHT22;5013;51.840;8.276;2023-03-31T02:41:53;10.60;1.00
9949;DHT22;5013;51.840;8.276;2023-03-31T02:44:19;10.60;99.90
9949;DHT22;5013;51.840;8.276;2023-03-31T02:46:46;10.60;99.90
9949;DHT22;5013;51.840;8.276;2023-03-31T02:49:12;10.60;99.90
9949;DHT22;5013;51.840;8.276;2023-03-31T02:54:56;10.60;1.00
9949;DHT22;5013;51.840;8.276;2023-03-31T02:57:39;10.70;1.00
9949;DHT22;5013;51.840;8.276;2023-03-31T03:08:18;10.50;1.00
9949;DHT22;5013;51.840;8.276;2023-03-31T03:11:07;10.50;1.00
9949;DHT22;5013;51.840;8.276;2023-03-31T03:13:38;10.50;1.00
9949;DHT22;5013;51.840;8.276;2023-03-31T03:18:59;10.50;1.00
9949;DHT22;5013;51.840;8.276;2023-03-31T03:21:26;10.40;1.00
9949;DHT22;5013;51.840;8.276;2023-03-31T03:23:52;10.40;18.80
9949;DHT22;5013;51.840;8.276;2023-03-31T03:26:19;10.40;56.70
9949;DHT22;5013;51.840;8.276;2023-03-31T03:28:46;10.50;97.70
9949;DHT22;5013;51.840;8.276;2023-03-31T03:31:13;10.50;99.90
9949;DHT22;5013;51.840;8.276;2023-03-31T03:33:40;10.50;99.90
9949;DHT22;5013;51.840;8.276;2023-03-31T03:36:06;10.40;99.90
9949;DHT22;5013;51.840;8.276;2023-03-31T03:38:31;10.40;99.90
9949;DHT22;5013;51.840;8.276;2023-03-31T03:40:57;10.40;99.90
9949;DHT22;5013;51.840;8.276;2023-03-31T03:43:23;10.30;99.90
9949;DHT22;5013;51.840;8.276;2023-03-31T03:45:49;10.30;99.90
9949;DHT22;5013;51.840;8.276;2023-03-31T03:48:15;10.30;99.90
9949;DHT22;5013;51.840;8.276;2023-03-31T03:50:40;10.30;99.90
9949;DHT22;5013;51.840;8.276;2023-03-31T03:53:06;10.30;99.90
9949;DHT22;5013;51.840;8.276;2023-03-31T03:55:32;10.30;99.90
9949;DHT22;5013;51.840;8.276;2023-03-31T03:57:58;10.30;99.90
9949;DHT22;5013;51.840;8.276;2023-03-31T04:00:24;10.20;99.90
9949;DHT22;5013;51.840;8.276;2023-03-31T04:02:49;10.20;99.90
9949;DHT22;5013;51.840;8.276;2023-03-31T04:05:15;10.20;99.90
9949;DHT22;5013;51.840;8.276;2023-03-31T04:07:41;10.20;99.90
9949;DHT22;5013;51.840;8.276;2023-03-31T04:10:07;10.20;99.90
9949;DHT22;5013;51.840;8.276;2023-03-31T04:12:34;10.20;99.90
9949;DHT22;5013;51.840;8.276;2023-03-31T04:15:00;10.20;99.90
9949;DHT22;5013;51.840;8.276;2023-03-31T04:17:25;10.10;99.90
9949;DHT22;5013;51.840;8.276;2023-03-31T04:20:00;10.20;99.90
9949;DHT22;5013;51.840;8.276;2023-03-31T04:22:29;10.20;99.90
9949;DHT22;5013;51.840;8.276;2023-03-31T04:25:01;10.10;99.90
9949;DHT22;5013;51.840;8.276;2023-03-31T04:27:27;10.10;99.90
9949;DHT22;5013;51.840;8.276;2023-03-31T04:29:53;10.10;99.90
9949;DHT22;5013;51.840;8.276;2023-03-31T04:32:22;10.10;99.90
9949;DHT22;5013;51.840;8.276;2023-03-31T04:34:48;10.10;99.90
9949;DHT22;5013;51.840;8.276;2023-03-31T04:37:18;10.10;99.90
9949;DHT22;5013;51.840;8.276;2023-03-31T04:39:43;10.10;99.90
9949;DHT22;5013;51.840;8.276;2023-03-31T04:42:11;10.10;99.90
9949;DHT22;5013;51.840;8.276;2023-03-31T04:44:37;10.10;99.90
9949;DHT22;5013;51.840;8.276;2023-03-31T04:47:03;10.10;99.90
9949;DHT22;5013;51.840;8.276;2023-03-31T04:49:31;10.10;99.90
9949;DHT22;5013;51.840;8.276;2023-03-31T04:51:57;10.10;99.90
9949;DHT22;5013;51.840;8.276;2023-03-31T04:54:23;10.00;99.90
9949;DHT22;5013;51.840;8.276;2023-03-31T04:56:48;10.10;99.90
9949;DHT22;5013;51.840;8.276;2023-03-31T04:59:14;10.10;99.90
9949;DHT22;5013;51.840;8.276;2023-03-31T05:01:40;10.10;99.90
9949;DHT22;5013;51.840;8.276;2023-03-31T05:04:10;10.10;99.90
9949;DHT22;5013;51.840;8.276;2023-03-31T05:06:35;10.10;99.90
9949;DHT22;5013;51.840;8.276;2023-03-31T05:09:01;10.20;99.90
9949;DHT22;5013;51.840;8.276;2023-03-31T05:11:26;10.10;99.90
9949;DHT22;5013;51.840;8.276;2023-03-31T05:13:53;10.10;99.90
9949;DHT22;5013;51.840;8.276;2023-03-31T05:16:18;10.10;99.90
9949;DHT22;5013;51.840;8.276;2023-03-31T05:18:44;10.20;99.90
9949;DHT22;5013;51.840;8.276;2023-03-31T05:21:16;10.20;99.90
9949;DHT22;5013;51.840;8.276;2023-03-31T05:23:43;10.20;99.90
9949;DHT22;5013;51.840;8.276;2023-03-31T05:26:09;10.20;99.90
9949;DHT22;5013;51.840;8.276;2023-03-31T05:28:35;10.20;99.90
9949;DHT22;5013;51.840;8.276;2023-03-31T05:31:02;10.30;99.90
9949;DHT22;5013;51.840;8.276;2023-03-31T05:33:28;10.30;99.90
9949;DHT22;5013;51.840;8.276;2023-03-31T05:35:54;10.30;99.90
9949;DHT22;5013;51.840;8.276;2023-03-31T05:38:20;10.30;99.90
9949;DHT22;5013;51.840;8.276;2023-03-31T05:40:46;10.30;99.90
9949;DHT22;5013;51.840;8.276;2023-03-31T05:43:12;10.40;99.90
9949;DHT22;5013;51.840;8.276;2023-03-31T05:45:38;10.40;99.90
9949;DHT22;5013;51.840;8.276;2023-03-31T05:48:04;10.30;99.90
9949;DHT22;5013;51.840;8.276;2023-03-31T05:50:30;10.40;99.90
9949;DHT22;5013;51.840;8.276;2023-03-31T05:52:55;10.30;99.90
9949;DHT22;5013;51.840;8.276;2023-03-31T05:55:22;10.30;99.90
9949;DHT22;5013;51.840;8.276;2023-03-31T05:57:47;10.30;99.90
9949;DHT22;5013;51.840;8.276;2023-03-31T06:00:13;10.40;99.90
9949;DHT22;5013;51.840;8.276;2023-03-31T06:02:39;10.40;99.90
9949;DHT22;5013;51.840;8.276;2023-03-31T06:05:06;10.40;99.90
9949;DHT22;5013;51.840;8.276;2023-03-31T06:07:31;10.40;99.90
9949;DHT22;5013;51.840;8.276;2023-03-31T06:09:57;10.40;99.90
9949;DHT22;5013;51.840;8.276;2023-03-31T06:12:22;10.40;99.90
9949;DHT22;5013;51.840;8.276;2023-03-31T06:14:48;10.50;99.90
9949;DHT22;5013;51.840;8.276;2023-03-31T06:17:13;10.40;99.90
9949;DHT22;5013;51.840;8.276;2023-03-31T06:19:39;10.40;99.90
9949;DHT22;5013;51.840;8.276;2023-03-31T06:22:04;10.50;99.90
9949;DHT22;5013;51.840;8.276;2023-03-31T06:24:30;10.50;99.90
9949;DHT22;5013;51.840;8.276;2023-03-31T06:26:55;10.50;99.90
9949;DHT22;5013;51.840;8.276;2023-03-31T06:29:21;10.50;99.90
9949;DHT22;5013;51.840;8.276;2023-03-31T06:31:47;10.50;99.90
9949;DHT22;5013;51.840;8.276;2023-03-31T06:34:12;10.50;99.90
9949;DHT22;5013;51.840;8.276;2023-03-31T06:36:38;10.50;99.90
9949;DHT22;5013;51.840;8.276;2023-03-31T06:39:03;10.40;99.90
9949;DHT22;5013;51.840;8.276;2023-03-31T06:41:29;10.40;99.90
9949;DHT22;5013;51.840;8.276;2023-03-31T06:43:54;10.40;99.90
9949;DHT22;5013;51.840;8.276;2023-03-31T06:46:20;10.40;99.90
9949;DHT22;5013;51.840;8.276;2023-03-31T06:48:46;10.40;99.90
9949;DHT22;5013;51.840;8.276;2023-03-31T06:51:11;10.40;99.90
9949;DHT22;5013;51.840;8.276;2023-03-31T06:53:37;10.40;99.90
9949;DHT22;5013;51.840;8.276;2023-03-31T06:56:03;10.40;99.90
9949;DHT22;5013;51.840;8.276;2023-03-31T06:58:29;10.50;99.90
9949;DHT22;5013;51.840;8.276;2023-03-31T07:00:54;10.60;99.90
9949;DHT22;5013;51.840;8.276;2023-03-31T07:03:20;10.60;99.90
9949;DHT22;5013;51.840;8.276;2023-03-31T07:05:50;10.60;99.90
9949;DHT22;5013;51.840;8.276;2023-03-31T07:08:17;10.70;99.90
9949;DHT22;5013;51.840;8.276;2023-03-31T07:10:43;10.70;99.90
9949;DHT22;5013;51.840;8.276;2023-03-31T07:13:14;10.80;99.90
9949;DHT22;5013;51.840;8.276;2023-03-31T07:15:41;10.80;72.70
9949;DHT22;5013;51.840;8.276;2023-03-31T07:18:06;10.80;99.90
9949;DHT22;5013;51.840;8.276;2023-03-31T07:20:33;10.90;92.70
9949;DHT22;5013;51.840;8.276;2023-03-31T07:22:58;10.90;35.40
9949;DHT22;5013;51.840;8.276;2023-03-31T07:25:24;10.80;33.80
9949;DHT22;5013;51.840;8.276;2023-03-31T07:27:50;10.90;33.10
9949;DHT22;5013;51.840;8.276;2023-03-31T07:30:18;10.90;1.00
9949;DHT22;5013;51.840;8.276;2023-03-31T07:32:48;10.90;1.00
9949;DHT22;5013;51.840;8.276;2023-03-31T07:35:15;10.90;1.00
9949;DHT22;5013;51.840;8.276;2023-03-31T07:37:42;11.00;1.00
9949;DHT22;5013;51.840;8.276;2023-03-31T07:40:11;11.10;1.00
9949;DHT22;5013;51.840;8.276;2023-03-31T07:42:36;11.10;1.00
9949;DHT22;5013;51.840;8.276;2023-03-31T07:45:02;11.00;1.00
9949;DHT22;5013;51.840;8.276;2023-03-31T07:47:30;11.10;1.00
9949;DHT22;5013;51.840;8.276;2023-03-31T07:49:56;11.00;1.00
9949;DHT22;5013;51.840;8.276;2023-03-31T07:52:21;11.00;1.00
9949;DHT22;5013;51.840;8.276;2023-03-31T07:54:48;11.00;1.00
9949;DHT22;5013;51.840;8.276;2023-03-31T07:57:14;11.00;1.00
9949;DHT22;5013;51.840;8.276;2023-03-31T07:59:41;11.00;1.00
9949;DHT22;5013;51.840;8.276;2023-03-31T08:02:06;11.10;1.00
9949;DHT22;5013;51.840;8.276;2023-03-31T08:04:32;11.00;1.00
9949;DHT22;5013;51.840;8.276;2023-03-31T08:06:58;11.10;1.00
9949;DHT22;5013;51.840;8.276;2023-03-31T08:09:23;11.10;1.00
9949;DHT22;5013;51.840;8.276;2023-03-31T08:11:49;11.00;1.00
9949;DHT22;5013;51.840;8.276;2023-03-31T08:14:15;11.10;1.00
9949;DHT22;5013;51.840;8.276;2023-03-31T08:16:41;11.00;1.00
9949;DHT22;5013;51.840;8.276;2023-03-31T08:19:06;11.00;1.00
9949;DHT22;5013;51.840;8.276;2023-03-31T08:21:32;11.10;1.00
9949;DHT22;5013;51.840;8.276;2023-03-31T08:23:58;11.10;1.00
9949;DHT22;5013;51.840;8.276;2023-03-31T08:26:24;11.00;1.00
9949;DHT22;5013;51.840;8.276;2023-03-31T08:28:50;11.00;1.00
9949;DHT22;5013;51.840;8.276;2023-03-31T08:31:17;11.00;1.00
9949;DHT22;5013;51.840;8.276;2023-03-31T08:33:44;11.00;1.00
9949;DHT22;5013;51.840;8.276;2023-03-31T08:36:10;11.00;1.00
9949;DHT22;5013;51.840;8.276;2023-03-31T08:38:37;10.90;1.00
9949;DHT22;5013;51.840;8.276;2023-03-31T08:41:05;10.80;35.70
9949;DHT22;5013;51.840;8.276;2023-03-31T08:43:40;10.80;99.90
9949;DHT22;5013;51.840;8.276;2023-03-31T08:46:10;10.70;94.90
9949;DHT22;5013;51.840;8.276;2023-03-31T08:48:56;10.80;99.90
9949;DHT22;5013;51.840;8.276;2023-03-31T08:52:10;10.70;99.90
9949;DHT22;5013;51.840;8.276;2023-03-31T08:54:39;10.70;99.90
9949;DHT22;5013;51.840;8.276;2023-03-31T08:57:14;10.70;99.90
9949;DHT22;5013;51.840;8.276;2023-03-31T08:59:40;10.70;99.90
9949;DHT22;5013;51.840;8.276;2023-03-31T09:02:28;10.80;99.90
9949;DHT22;5013;51.840;8.276;2023-03-31T09:08:12;10.80;99.90
9949;DHT22;5013;51.840;8.276;2023-03-31T09:16:03;10.80;99.90
9949;DHT22;5013;51.840;8.276;2023-03-31T09:18:34;10.70;99.90
9949;DHT22;5013;51.840;8.276;2023-03-31T09:21:15;10.80;99.90
9949;DHT22;5013;51.840;8.276;2023-03-31T09:26:26;10.60;99.90
9949;DHT22;5013;51.840;8.276;2023-03-31T09:28:56;10.70;99.90
9949;DHT22;5013;51.840;8.276;2023-03-31T09:31:24;10.60;99.90
9949;DHT22;5013;51.840;8.276;2023-03-31T09:33:52;10.70;99.90
9949;DHT22;5013;51.840;8.276;2023-03-31T09:36:20;10.70;99.90
9949;DHT22;5013;51.840;8.276;2023-03-31T09:38:49;10.80;99.90
9949;DHT22;5013;51.840;8.276;2023-03-31T09:41:15;10.90;99.90
9949;DHT22;5013;51.840;8.276;2023-03-31T09:43:42;10.80;99.90
9949;DHT22;5013;51.840;8.276;2023-03-31T09:46:22;10.90;99.90
9949;DHT22;5013;51.840;8.276;2023-03-31T09:49:14;10.90;99.90
9949;DHT22;5013;51.840;8.276;2023-03-31T09:51:43;10.90;99.90
9949;DHT22;5013;51.840;8.276;2023-03-31T09:54:20;10.90;99.90
9949;DHT22;5013;51.840;8.276;2023-03-31T09:56:48;11.00;99.90
9949;DHT22;5013;51.840;8.276;2023-03-31T09:59:22;11.00;99.90
9949;DHT22;5013;51.840;8.276;2023-03-31T10:01:56;11.10;99.90
9949;DHT22;5013;51.840;8.276;2023-03-31T10:04:25;11.20;99.90
9949;DHT22;5013;51.840;8.276;2023-03-31T10:06:53;11.30;99.90
9949;DHT22;5013;51.840;8.276;2023-03-31T10:09:20;11.40;9.00
9949;DHT22;5013;51.840;8.276;2023-03-31T10:11:54;11.70;99.90
9949;DHT22;5013;51.840;8.276;2023-03-31T10:14:26;11.80;99.90
9949;DHT22;5013;51.840;8.276;2023-03-31T10:16:56;11.90;1.00
9949;DHT22;5013;51.840;8.276;2023-03-31T10:19:26;11.80;1.00
9949;DHT22;5013;51.840;8.276;2023-03-31T10:22:01;11.80;1.00
9949;DHT22;5013;51.840;8.276;2023-03-31T10:25:13;12.00;1.00
9949;DHT22;5013;51.840;8.276;2023-03-31T10:27:40;12.20;1.00
9949;DHT22;5013;51.840;8.276;2023-03-31T10:30:11;12.40;1.00
9949;DHT22;5013;51.840;8.276;2023-03-31T10:32:40;12.70;1.00
9949;DHT22;5013;51.840;8.276;2023-03-31T10:35:32;12.80;99.90
9949;DHT22;5013;51.840;8.276;2023-03-31T10:38:11;12.90;86.60
9949;DHT22;5013;51.840;8.276;2023-03-31T10:40:37;13.20;1.00
9949;DHT22;5013;51.840;8.276;2023-03-31T10:43:40;13.20;99.90
9949;DHT22;5013;51.840;8.276;2023-03-31T10:46:07;13.60;99.90
9949;DHT22;5013;51.840;8.276;2023-03-31T10:48:35;14.20;1.00
9949;DHT22;5013;51.840;8.276;2023-03-31T10:51:09;14.60;1.00
9949;DHT22;5013;51.840;8.276;2023-03-31T10:53:40;14.80;99.90
9949;DHT22;5013;51.840;8.276;2023-03-31T11:07:45;14.60;99.90
9949;DHT22;5013;51.840;8.276;2023-03-31T11:10:33;14.40;99.90
9949;DHT22;5013;51.840;8.276;2023-03-31T11:21:39;13.90;99.90
9949;DHT22;5013;51.840;8.276;2023-03-31T11:24:47;13.70;1.00
9949;DHT22;5013;51.840;8.276;2023-03-31T11:41:45;13.50;1.00
9949;DHT22;5013;51.840;8.276;2023-03-31T11:44:01;13.50;99.90
9949;DHT22;5013;51.840;8.276;2023-03-31T11:46:49;13.40;99.90
9949;DHT22;5013;51.840;8.276;2023-03-31T11:49:37;13.40;1.00
9949;DHT22;5013;51.840;8.276;2023-03-31T11:52:13;13.40;1.00
9949;DHT22;5013;51.840;8.276;2023-03-31T11:54:53;13.50;1.00
9949;DHT22;5013;51.840;8.276;2023-03-31T11:57:28;13.60;99.90
9949;DHT22;5013;51.840;8.276;2023-03-31T11:59:57;13.50;12.20
9949;DHT22;5013;51.840;8.276;2023-03-31T12:05:11;13.40;1.00
9949;DHT22;5013;51.840;8.276;2023-03-31T12:08:01;13.40;99.90
9949;DHT22;5013;51.840;8.276;2023-03-31T12:10:38;13.40;99.90
9949;DHT22;5013;51.840;8.276;2023-03-31T12:18:36;14.10;99.90
9949;DHT22;5013;51.840;8.276;2023-03-31T12:21:04;14.30;99.90
9949;DHT22;5013;51.840;8.276;2023-03-31T12:23:37;14.60;99.90
9949;DHT22;5013;51.840;8.276;2023-03-31T12:28:46;14.70;99.90
9949;DHT22;5013;51.840;8.276;2023-03-31T12:31:19;14.90;51.50
9949;DHT22;5013;51.840;8.276;2023-03-31T12:33:56;14.90;1.00
9949;DHT22;5013;51.840;8.276;2023-03-31T12:39:09;14.70;1.00
9949;DHT22;5013;51.840;8.276;2023-03-31T12:52:54;13.20;99.90
9949;DHT22;5013;51.840;8.276;2023-03-31T13:06:03;12.90;97.30
9949;DHT22;5013;51.840;8.276;2023-03-31T13:08:49;13.00;99.90
9949;DHT22;5013;51.840;8.276;2023-03-31T13:11:15;12.70;99.90
9949;DHT22;5013;51.840;8.276;2023-03-31T13:13:59;12.70;99.90
9949;DHT22;5013;51.840;8.276;2023-03-31T13:16:25;12.70;99.90
9949;DHT22;5013;51.840;8.276;2023-03-31T13:18:52;12.60;1.00
9949;DHT22;5013;51.840;8.276;2023-03-31T13:21:19;12.30;1.00
9949;DHT22;5013;51.840;8.276;2023-03-31T13:23:45;12.50;1.00
9949;DHT22;5013;51.840;8.276;2023-03-31T13:37:36;12.60;1.00
9949;DHT22;5013;51.840;8.276;2023-03-31T13:42:59;12.70;1.00
9949;DHT22;5013;51.840;8.276;2023-03-31T13:48:54;13.00;99.90
9949;DHT22;5013;51.840;8.276;2023-03-31T13:51:25;13.20;99.90
9949;DHT22;5013;51.840;8.276;2023-03-31T13:54:17;13.20;1.00
9949;DHT22;5013;51.840;8.276;2023-03-31T14:02:47;13.10;23.20
9949;DHT22;5013;51.840;8.276;2023-03-31T14:05:42;13.10;24.00
9949;DHT22;5013;51.840;8.276;2023-03-31T14:11:21;13.00;1.00
9949;DHT22;5013;51.840;8.276;2023-03-31T14:16:30;12.90;99.90
9949;DHT22;5013;51.840;8.276;2023-03-31T14:21:54;13.10;1.00
9949;DHT22;5013;51.840;8.276;2023-03-31T14:24:40;13.10;1.00
9949;DHT22;5013;51.840;8.276;2023-03-31T14:27:20;13.20;99.90
9949;DHT22;5013;51.840;8.276;2023-03-31T14:29:56;13.30;1.00
9949;DHT22;5013;51.840;8.276;2023-03-31T14:35:44;13.50;1.00
9949;DHT22;5013;51.840;8.276;2023-03-31T14:38:16;13.50;1.00
9949;DHT22;5013;51.840;8.276;2023-03-31T14:40:52;13.40;1.00
9949;DHT22;5013;51.840;8.276;2023-03-31T14:43:22;13.40;99.90
9949;DHT22;5013;51.840;8.276;2023-03-31T14:46:08;13.40;1.00
9949;DHT22;5013;51.840;8.276;2023-03-31T14:48:40;13.50;1.00
9949;DHT22;5013;51.840;8.276;2023-03-31T14:51:11;13.40;99.90
9949;DHT22;5013;51.840;8.276;2023-03-31T14:53:38;13.40;99.90
9949;DHT22;5013;51.840;8.276;2023-03-31T14:56:06;13.50;1.00
9949;DHT22;5013;51.840;8.276;2023-03-31T14:58:44;13.60;99.90
9949;DHT22;5013;51.840;8.276;2023-03-31T15:01:15;13.40;87.60
9949;DHT22;5013;51.840;8.276;2023-03-31T15:03:42;13.60;1.00
9949;DHT22;5013;51.840;8.276;2023-03-31T15:06:09;13.80;99.90
9949;DHT22;5013;51.840;8.276;2023-03-31T15:08:35;13.90;1.00
9949;DHT22;5013;51.840;8.276;2023-03-31T15:11:08;13.90;1.00
9949;DHT22;5013;51.840;8.276;2023-03-31T15:13:36;13.80;99.90
9949;DHT22;5013;51.840;8.276;2023-03-31T15:19:06;13.80;1.00
9949;DHT22;5013;51.840;8.276;2023-03-31T15:21:37;13.70;93.90
9949;DHT22;5013;51.840;8.276;2023-03-31T15:24:03;13.70;99.90
9949;DHT22;5013;51.840;8.276;2023-03-31T15:26:36;13.80;75.30
9949;DHT22;5013;51.840;8.276;2023-03-31T15:29:12;14.00;1.00
9949;DHT22;5013;51.840;8.276;2023-03-31T15:31:40;14.00;1.00
9949;DHT22;5013;51.840;8.276;2023-03-31T15:34:25;13.90;99.90
9949;DHT22;5013;51.840;8.276;2023-03-31T15:36:56;14.00;1.00
9949;DHT22;5013;51.840;8.276;2023-03-31T15:39:26;13.80;1.00
9949;DHT22;5013;51.840;8.276;2023-03-31T15:41:53;13.90;99.90
9949;DHT22;5013;51.840;8.276;2023-03-31T15:44:43;13.80;99.90
9949;DHT22;5013;51.840;8.276;2023-03-31T15:47:16;13.70;1.00
9949;DHT22;5013;51.840;8.276;2023-03-31T15:49:48;13.70;1.00
9949;DHT22;5013;51.840;8.276;2023-03-31T15:52:26;13.50;1.00
9949;DHT22;5013;51.840;8.276;2023-03-31T15:54:53;13.50;99.90
9949;DHT22;5013;51.840;8.276;2023-03-31T15:57:33;13.40;1.00
9949;DHT22;5013;51.840;8.276;2023-03-31T15:59:59;13.40;99.90
9949;DHT22;5013;51.840;8.276;2023-03-31T16:02:36;13.40;99.90
9949;DHT22;5013;51.840;8.276;2023-03-31T16:05:03;13.40;99.90
9949;DHT22;5013;51.840;8.276;2023-03-31T16:07:32;13.40;99.90
9949;DHT22;5013;51.840;8.276;2023-03-31T16:10:18;13.30;1.00
9949;DHT22;5013;51.840;8.276;2023-03-31T16:12:58;13.30;99.90
9949;DHT22;5013;51.840;8.276;2023-03-31T16:15:35;13.20;99.90
9949;DHT22;5013;51.840;8.276;2023-03-31T16:18:09;13.20;99.90
9949;DHT22;5013;51.840;8.276;2023-03-31T16:20:41;13.20;1.00
9949;DHT22;5013;51.840;8.276;2023-03-31T16:23:18;13.10;1.00
9949;DHT22;5013;51.840;8.276;2023-03-31T16:25:44;13.10;99.90
9949;DHT22;5013;51.840;8.276;2023-03-31T16:28:19;13.00;99.90
9949;DHT22;5013;51.840;8.276;2023-03-31T16:30:47;12.90;99.90
9949;DHT22;5013;51.840;8.276;2023-03-31T16:33:15;12.90;99.90
9949;DHT22;5013;51.840;8.276;2023-03-31T16:35:44;12.80;99.90
9949;DHT22;5013;51.840;8.276;2023-03-31T16:38:11;12.80;1.00
9949;DHT22;5013;51.840;8.276;2023-03-31T16:40:43;12.80;99.90
9949;DHT22;5013;51.840;8.276;2023-03-31T16:43:16;12.70;1.00
9949;DHT22;5013;51.840;8.276;2023-03-31T16:45:45;12.70;1.00
9949;DHT22;5013;51.840;8.276;2023-03-31T16:48:11;12.70;99.90
9949;DHT22;5013;51.840;8.276;2023-03-31T16:50:37;12.70;1.00
9949;DHT22;5013;51.840;8.276;2023-03-31T16:53:03;12.60;1.00
9949;DHT22;5013;51.840;8.276;2023-03-31T16:55:29;12.50;1.00
9949;DHT22;5013;51.840;8.276;2023-03-31T16:57:57;12.30;1.00
9949;DHT22;5013;51.840;8.276;2023-03-31T17:00:30;12.20;99.90
9949;DHT22;5013;51.840;8.276;2023-03-31T17:02:56;12.20;1.00
9949;DHT22;5013;51.840;8.276;2023-03-31T17:05:23;12.20;1.00
9949;DHT22;5013;51.840;8.276;2023-03-31T17:07:50;12.10;1.00
9949;DHT22;5013;51.840;8.276;2023-03-31T17:10:15;12.10;65.10
9949;DHT22;5013;51.840;8.276;2023-03-31T17:12:41;12.00;1.00
9949;DHT22;5013;51.840;8.276;2023-03-31T17:15:08;12.00;1.00
9949;DHT22;5013;51.840;8.276;2023-03-31T17:17:34;11.90;1.00
9949;DHT22;5013;51.840;8.276;2023-03-31T17:20:01;11.90;1.00
9949;DHT22;5013;51.840;8.276;2023-03-31T17:22:26;11.90;99.90
9949;DHT22;5013;51.840;8.276;2023-03-31T17:24:52;11.90;99.90
9949;DHT22;5013;51.840;8.276;2023-03-31T17:27:25;11.90;1.00
9949;DHT22;5013;51.840;8.276;2023-03-31T17:29:52;12.00;1.00
9949;DHT22;5013;51.840;8.276;2023-03-31T17:32:18;11.90;99.90
9949;DHT22;5013;51.840;8.276;2023-03-31T17:34:44;11.80;1.00
9949;DHT22;5013;51.840;8.276;2023-03-31T17:37:12;11.80;99.90
9949;DHT22;5013;51.840;8.276;2023-03-31T17:39:38;11.60;99.90
9949;DHT22;5013;51.840;8.276;2023-03-31T17:42:04;11.60;99.90
9949;DHT22;5013;51.840;8.276;2023-03-31T17:44:29;11.50;99.90
9949;DHT22;5013;51.840;8.276;2023-03-31T17:46:55;11.50;99.90
9949;DHT22;5013;51.840;8.276;2023-03-31T17:49:21;11.40;1.00
9949;DHT22;5013;51.840;8.276;2023-03-31T17:51:47;11.40;99.90
9949;DHT22;5013;51.840;8.276;2023-03-31T17:54:13;11.40;1.00
9949;DHT22;5013;51.840;8.276;2023-03-31T17:56:39;11.40;1.00
9949;DHT22;5013;51.840;8.276;2023-03-31T17:59:05;11.30;99.90
9949;DHT22;5013;51.840;8.276;2023-03-31T18:01:31;11.20;1.00
9949;DHT22;5013;51.840;8.276;2023-03-31T18:03:57;11.20;1.00
9949;DHT22;5013;51.840;8.276;2023-03-31T18:06:23;11.20;1.00
9949;DHT22;5013;51.840;8.276;2023-03-31T18:08:49;11.20;1.00
9949;DHT22;5013;51.840;8.276;2023-03-31T18:11:15;11.10;1.00
9949;DHT22;5013;51.840;8.276;2023-03-31T18:13:41;11.10;1.00
9949;DHT22;5013;51.840;8.276;2023-03-31T18:16:08;11.20;1.00
9949;DHT22;5013;51.840;8.276;2023-03-31T18:18:34;11.20;99.90
9949;DHT22;5013;51.840;8.276;2023-03-31T18:21:09;11.20;99.90
9949;DHT22;5013;51.840;8.276;2023-03-31T18:23:36;11.10;99.90
9949;DHT22;5013;51.840;8.276;2023-03-31T18:26:08;11.10;1.00
9949;DHT22;5013;51.840;8.276;2023-03-31T18:28:33;11.10;1.00
9949;DHT22;5013;51.840;8.276;2023-03-31T18:31:04;11.10;85.90
9949;DHT22;5013;51.840;8.276;2023-03-31T18:33:29;11.10;1.00
9949;DHT22;5013;51.840;8.276;2023-03-31T18:35:55;11.20;99.90
9949;DHT22;5013;51.840;8.276;2023-03-31T18:38:24;11.20;99.90
9949;DHT22;5013;51.840;8.276;2023-03-31T18:40:50;11.20;1.00
9949;DHT22;5013;51.840;8.276;2023-03-31T18:43:18;11.20;1.00
9949;DHT22;5013;51.840;8.276;2023-03-31T18:45:50;11.30;1.00
9949;DHT22;5013;51.840;8.276;2023-03-31T18:48:17;11.30;1.00
9949;DHT22;5013;51.840;8.276;2023-03-31T18:50:44;11.20;1.00
9949;DHT22;5013;51.840;8.276;2023-03-31T18:53:10;11.30;1.00
9949;DHT22;5013;51.840;8.276;2023-03-31T18:55:37;11.30;1.00
9949;DHT22;5013;51.840;8.276;2023-03-31T18:58:03;11.30;99.90
9949;DHT22;5013;51.840;8.276;2023-03-31T19:00:28;11.30;99.90
9949;DHT22;5013;51.840;8.276;2023-03-31T19:02:54;11.30;99.90
9949;DHT22;5013;51.840;8.276;2023-03-31T19:05:20;11.30;1.00
9949;DHT22;5013;51.840;8.276;2023-03-31T19:07:45;11.30;99.90
9949;DHT22;5013;51.840;8.276;2023-03-31T19:10:11;11.30;1.00
9949;DHT22;5013;51.840;8.276;2023-03-31T19:12:36;11.20;99.90
9949;DHT22;5013;51.840;8.276;2023-03-31T19:15:02;11.20;1.00
9949;DHT22;5013;51.840;8.276;2023-03-31T19:17:28;11.20;99.90
9949;DHT22;5013;51.840;8.276;2023-03-31T19:19:53;11.20;99.90